Weather observations for the past three days for
Jacksonville Municipal Airport
Imperial (Metric)
Date Time (cdt) Wind (mph) Vis. (mi.) Weather Sky Cond. Temperature (ºF) Relative Humidity Wind Chill (°F) Heat Index (°F) Pressure Precipitation (in)
Air Dwpt 6 hour altimeter (in) sea level (mb) 1 hr 3 hr 6 hr
Max. Min.
31 10:15 SW 9 10.00 Fair CLR 84.4 65.7 53% 86 30.02 0.0
31 09:55 SW 10 10.00 Fair CLR 83.1 65.5 55% 85 30.02 0.0
31 09:35 S 12 10.00 Fair CLR 81.3 64.6 57% 83 30.02 0.0
31 09:15 SW 9 10.00 Fair CLR 79.7 63.7 58% 81 30.02 0.0
31 08:55 SW 10 G 17 10.00 Fair CLR 78.6 63.1 59% 80 30.02 0.0
31 08:35 S 9 10.00 Fair CLR 76.1 63.3 65% 78 30.02 0.0
31 08:15 S 10 10.00 Fair CLR 74.8 62.6 66% 30.01 0.0
31 07:55 S 7 10.00 Fair CLR 73.6 62.4 68% 30.01 0.0
31 07:35 S 8 10.00 Fair CLR 72.5 61.9 69% 30 0.0
31 07:15 S 8 10.00 Fair CLR 71.6 61.7 71% 29.99 0.0
31 06:55 S 7 10.00 Fair CLR 70.5 61.5 76.1 69.8 73% 29.99 0.0
31 06:35 S 6 10.00 Fair CLR 70 61.3 74% 29.99 0.0
31 06:15 S 6 10.00 Fair CLR 70.2 61.3 74% 29.98 0.0
31 05:55 S 6 10.00 Fair CLR 70.3 61.5 74% 29.98 0.0
31 05:35 S 6 10.00 Fair CLR 70.9 61.7 73% 29.98 0.0
31 05:15 S 7 10.00 Fair CLR 71.1 61.7 72% 29.98 0.0
31 04:55 S 6 10.00 Fair CLR 71.1 61.7 72% 29.98 0.0
31 04:35 S 6 10.00 Fair CLR 71.8 61.7 71% 29.98 0.0
31 04:15 S 7 10.00 Fair CLR 72.5 61.7 69% 29.98 0.0
31 03:55 S 7 10.00 Fair CLR 73 61.7 68% 29.98 0.0
31 03:35 S 6 10.00 Fair CLR 73.6 61.9 67% 29.98 0.0
31 03:15 S 7 10.00 Fair CLR 73.6 62.1 67% 29.97 0.0
31 02:55 S 6 10.00 Fair CLR 73.8 62.1 67% 29.97 0.0
31 02:35 S 8 10.00 Fair CLR 74.1 62.2 67% 29.97 0.0
31 02:15 S 6 10.00 Fair CLR 74.7 62.2 65% 29.98 0.0
31 01:55 S 6 10.00 Fair CLR 74.8 62.2 65% 29.98 0.0
31 01:35 S 7 10.00 Fair CLR 75.2 62.4 65% 77 29.98 0.0
31 01:15 S 7 10.00 Fair CLR 75.6 62.4 64% 78 29.98 0.0
31 00:55 S 7 10.00 Fair CLR 75.9 62.6 85.5 75.9 63% 78 29.98 0.0
31 00:35 S 6 10.00 Fair CLR 76.1 62.6 63% 78 29.98 0.0
31 00:15 S 7 10.00 Fair CLR 76.3 62.8 63% 78 29.98 0.0
30 23:55 S 6 10.00 Fair CLR 76.5 62.8 63% 78 29.99 0.0
30 23:35 S 8 10.00 Fair CLR 77 62.8 62% 79 29.99 0.0
30 23:15 S 7 10.00 Fair CLR 77.4 62.8 61% 79 29.99 0.0
30 22:55 S 9 10.00 Fair CLR 78.6 62.6 58% 80 29.98 0.0
30 22:35 S 7 10.00 Fair CLR 79 63 58% 81 29.98 0.0
30 22:15 S 8 10.00 Fair CLR 79.2 63.1 58% 81 29.98 0.0
30 21:55 S 9 10.00 Fair CLR 79.9 63 56% 81 29.98 0.0
30 21:35 S 8 10.00 Fair CLR 80.8 63 55% 82 29.98 0.0
30 21:15 SE 8 G 17 10.00 Fair CLR 81 63.5 55% 82 29.98 0.0
30 20:55 SE 10 10.00 Fair CLR 81.5 63.1 54% 83 29.97 0.0
30 20:35 SE 10 10.00 Fair CLR 81.9 63.3 53% 83 29.97 0.0
30 20:15 SE 8 10.00 Fair CLR 81.5 64.6 57% 83 29.96 0.0
30 19:55 SE 8 10.00 Fair CLR 82 65.8 58% 84 29.96 0.0
30 19:35 SE 8 10.00 Fair CLR 83.1 65.7 56% 85 29.95 0.0
30 19:15 SE 6 10.00 Fair CLR 84 65.3 53% 86 29.96 0.0
30 18:55 SE 7 10.00 Fair CLR 85.6 65.3 91.4 85.6 51% 88 29.96 0.0
30 18:35 S 8 10.00 Fair CLR 87.6 65.3 48% 90 29.96 0.0
30 18:15 S 7 10.00 Fair CLR 88.7 65.3 46% 91 29.96 0.0
30 17:55 S 9 10.00 Fair CLR 88.7 64.4 45% 90 29.96 0.0
30 17:35 S 8 10.00 Fair CLR 88.9 63.7 43% 90 29.96 0.0
30 17:15 S 9 10.00 Fair CLR 90.5 64.4 42% 92 29.96 0.0
30 16:55 S 10 10.00 Fair CLR 91 65.5 43% 93 29.96 0.0
30 16:35 S 9 10.00 Fair CLR 89.4 65.1 45% 91 29.96 0.0
30 16:15 S 9 G 16 10.00 Fair CLR 90.7 65.5 43% 93 29.96 0.0
30 15:55 S 8 10.00 Fair CLR 91.2 66.2 44% 94 29.97 0.0
30 15:35 S 12 10.00 Fair CLR 90.7 65.8 44% 93 29.97 0.0
30 15:15 S 8 10.00 Fair CLR 90.5 65.5 44% 93 29.98 0.0
30 14:55 S 7 10.00 Fair CLR 90.5 65.7 44% 93 29.98 0.0
30 14:35 S 8 10.00 Fair CLR 90.3 65.7 44% 93 29.98 0.0
30 14:15 S 7 10.00 Fair CLR 90.1 66.2 45% 93 29.99 0.0
30 13:55 S 9 10.00 Fair CLR 90 65.7 45% 92 30 0.0
30 13:35 S 10 10.00 Fair CLR 89.2 65.7 46% 92 30.01 0.0
30 13:15 S 8 10.00 Fair CLR 89.1 65.5 46% 91 30.01 0.0
30 12:55 S 9 10.00 Fair CLR 88 65.5 88 70 47% 90 30.01 0.0
30 12:35 S 8 10.00 Fair CLR 87.3 65.3 48% 89 30.01 0.0
30 12:15 SW 8 10.00 Fair CLR 86.2 64.6 49% 88 30.03 0.0
30 11:55 SW 7 10.00 Fair CLR 86 65.5 50% 88 30.03 0.0
30 11:35 S 10 G 14 10.00 Fair CLR 85.3 65.1 51% 87 30.03 0.0
30 11:15 S 10 10.00 Fair CLR 83.8 65.1 53% 86 30.03 0.0
30 10:55 S 9 10.00 Fair CLR 83.7 65.1 54% 85 30.03 0.0
30 10:35 S 12 G 17 10.00 Fair CLR 82.9 64.4 54% 85 30.03 0.0
30 10:15 S 12 G 16 10.00 Fair CLR 81.7 64 55% 83 30.03 0.0
30 09:55 SW 9 10.00 Fair CLR 80.8 64.6 58% 82 30.02 0.0
30 09:35 S 12 10.00 Fair CLR 79.2 63.9 60% 81 30.01 0.0
30 09:15 S 8 10.00 Fair CLR 77.7 63.9 62% 79 30.01 0.0
30 08:55 S 13 G 17 10.00 Fair CLR 76.3 63 64% 78 30.02 0.0
30 08:35 S 9 10.00 Fair CLR 75 63 66% 77 30.02 0.0
30 08:15 S 9 10.00 Fair CLR 73.4 63.1 70% 30.02 0.0
30 07:55 S 8 10.00 Fair CLR 72 63.3 74% 30.02 0.0
30 07:35 S 8 10.00 Fair CLR 70.9 63.1 77% 30.02 0.0
30 07:15 S 8 10.00 Fair CLR 70.2 63.1 79% 30.01 0.0
30 06:55 S 9 10.00 Fair CLR 69.8 63 73.4 69.8 79% 30 0.0
30 06:35 S 9 10.00 Fair CLR 70.3 63.1 78% 30.01 0.0
30 06:15 S 9 10.00 Fair CLR 70.3 63.3 79% 30.01 0.0
30 05:55 S 9 10.00 Fair CLR 70.2 63.5 80% 30.01 0.0
30 05:35 S 9 10.00 Fair CLR 70.7 63.5 78% 30 0.0
30 05:15 S 9 10.00 Fair CLR 70.3 63.3 79% 30 0.0
30 04:55 S 9 10.00 Fair CLR 70.7 63.5 78% 30 0.0
30 04:35 S 7 10.00 Fair CLR 71.1 63 76% 30 0.0
30 04:15 S 8 G 16 10.00 Fair CLR 71.6 63 74% 29.99 0.0
30 03:55 S 8 10.00 Fair CLR 71.4 63.1 75% 30 0.0
30 03:35 S 8 10.00 Fair CLR 71.8 63.1 74% 30 0.0
30 03:15 S 9 10.00 Fair CLR 72.3 63.1 73% 30.01 0.0
30 02:35 S 10 10.00 Fair CLR 72.9 63.3 72% 30.01 0.0
30 02:15 S 10 G 16 10.00 Fair CLR 73 63.5 72% 30.01 0.0
30 01:55 S 8 10.00 Fair CLR 72.9 63.5 73% 30.02 0.0
30 01:35 S 8 10.00 Fair CLR 72.5 63.3 73% 30.02 0.0
30 01:15 S 6 10.00 Fair CLR 72.7 63.5 73% 30.02 0.0
30 00:55 S 8 10.00 Fair CLR 73.4 63.5 79 72.3 71% 30.03 0.0
30 00:35 S 9 10.00 Fair CLR 73 63.3 72% 30.02 0.0
30 00:15 S 8 10.00 Fair CLR 72.5 63.3 73% 30.03 0.0
29 23:55 S 9 10.00 Fair CLR 72.3 63.5 74% 30.03 0.0
29 23:35 S 7 10.00 Fair CLR 72.9 63.5 73% 30.03 0.0
29 23:15 S 8 10.00 Fair CLR 73 63.5 72% 30.03 0.0
29 22:55 S 7 10.00 Fair CLR 73.4 63.5 71% 30.03 0.0
29 22:35 S 9 10.00 Fair CLR 74.3 63.1 68% 30.02 0.0
29 22:15 S 8 10.00 Fair CLR 74.7 63 67% 30.02 0.0
29 21:55 S 8 10.00 Fair CLR 74.8 63 67% 30.03 0.0
29 21:35 S 8 10.00 Fair CLR 74.8 63 67% 30.03 0.0
29 21:15 SE 8 10.00 Fair CLR 74.3 63.1 68% 30.03 0.0
29 20:55 SE 6 10.00 Fair CLR 74.3 63.5 69% 30.02 0.0
29 20:35 SE 6 10.00 Fair CLR 74.7 63.3 68% 30.02 0.0
29 20:15 SE 6 10.00 Fair CLR 74.3 63.5 69% 30.02 0.0
29 19:55 SE 5 10.00 Fair CLR 75 63.7 68% 77 30.02 0.0
29 19:35 SE 5 10.00 Fair CLR 77 64.2 65% 79 30.02 0.0
29 19:15 SE 7 10.00 Fair CLR 78.1 64 62% 80 30.02 0.0
29 18:55 S 6 10.00 Fair CLR 79 63.9 83.5 79 60% 81 30.02 0.0
29 18:35 S 8 10.00 Fair CLR 79.7 63.7 58% 81 30.01 0.0
29 18:15 S 10 10.00 Fair CLR 80.2 63.3 56% 82 30 0.0
29 17:55 S 10 G 16 10.00 Fair CLR 80.6 63.9 57% 82 30.01 0.0
29 17:35 S 9 10.00 Fair CLR 81.5 63.7 55% 83 30.03 0.0
29 17:15 S 7 10.00 Fair CLR 81.5 63.5 54% 83 30.04 0.0
29 16:55 S 9 10.00 Fair CLR 81.9 63.3 53% 83 30.04 0.0
29 16:35 S 7 10.00 Fair CLR 82.6 64.6 55% 84 30.04 0.0
29 16:15 S 5 10.00 Fair CLR 82 64.8 56% 84 30.06 0.0
29 15:55 S 7 10.00 Fair CLR 81.5 64.9 57% 83 30.07 0.0
29 15:35 S 6 10.00 Fair CLR 82.2 64.9 56% 84 30.07 0.0
29 15:15 SE 6 10.00 Fair CLR 82.4 64.6 55% 84 30.07 0.0
29 14:55 S 8 10.00 Fair CLR 82.6 64.4 54% 84 30.09 0.0
29 14:35 S 9 10.00 Fair CLR 81.9 64.4 56% 83 30.08 0.0
29 14:15 S 10 10.00 Fair CLR 82 63.9 54% 83 30.09 0.0
29 13:55 S 7 10.00 Fair CLR 82.8 64.4 54% 84 30.1 0.0
29 13:35 S 10 10.00 Fair CLR 82.6 64.2 54% 84 30.11 0.0
29 13:15 S 8 10.00 Fair CLR 81.5 63.7 55% 83 30.11 0.0
29 12:55 S 10 G 16 10.00 Fair CLR 81.3 63.3 82.4 63.5 54% 83 30.12 0.0
29 12:35 S 12 G 16 10.00 Fair CLR 81.7 64.8 57% 83 30.12 0.0
29 12:15 S 9 G 16 10.00 Fair CLR 81.9 65.3 57% 84 30.12 0.0
29 11:55 S 8 10.00 Fair CLR 79.9 64.9 60% 82 30.13 0.0
29 11:35 S 8 10.00 Fair CLR 79.7 65.1 61% 82 30.13 0.0
29 11:15 S 8 10.00 Fair CLR 78.1 65.1 65% 80 30.14 0.0
29 10:55 S 6 10.00 Fair CLR 77.4 64.4 64% 79 30.15 0.0
29 10:35 S 7 10.00 Fair CLR 77 63.7 64% 79 30.15 0.0
29 10:15 S 9 10.00 Fair CLR 76.5 63.9 65% 78 30.15 0.0
29 09:55 S 10 10.00 Fair CLR 75.9 63.7 66% 78 30.15 0.0
29 09:35 S 8 10.00 Fair CLR 75 63.3 67% 77 30.15 0.0
29 09:15 S 5 10.00 Fair CLR 73.2 63.5 72% 30.15 0.0
29 08:35 S 6 10.00 Fair CLR 69.8 62.1 77% 30.15 0.0
29 08:15 S 3 10.00 Fair CLR 68.4 61.5 79% 30.15 0.0
29 07:55 S 5 10.00 Fair CLR 66.7 60.8 81% 30.15 0.0
29 07:35 Calm 10.00 Fair CLR 64.9 61 87% 30.15 0.0
29 07:15 S 3 10.00 Fair CLR 64.6 60.6 87% 30.14 0.0
29 06:55 S 3 10.00 Fair CLR 63.5 60.6 66 61.2 90% 30.14 0.0
29 06:35 Calm 10.00 Fair CLR 61.9 61.2 98% 30.13 0.0
29 06:15 Calm 10.00 Fair CLR 64.2 59 83% 30.13 0.0
29 05:55 S 5 10.00 Fair CLR 65.1 59.2 81% 30.12 0.0
29 05:35 S 6 10.00 Fair CLR 66 59.4 79% 30.12 0.0
29 05:15 S 7 10.00 Fair CLR 65.5 59.9 82% 30.12 0.0
29 04:55 S 6 10.00 Fair CLR 64.2 60.6 88% 30.13 0.0
29 04:35 SE 5 10.00 Fair CLR 63.3 61.2 93% 30.13 0.0
29 04:15 SE 3 10.00 Fair CLR 63.5 61.3 93% 30.13 0.0
29 03:55 SE 5 10.00 Fair CLR 63.9 61.7 93% 30.13 0.0
29 03:35 SE 3 10.00 Fair CLR 63.9 61.7 93% 30.13 0.0
29 03:15 SE 3 10.00 Fair CLR 63.9 61.7 93% 30.13 0.0
29 02:55 SE 5 10.00 Fair CLR 63.9 61.9 93% 30.13 0.0
29 02:35 SE 3 10.00 Fair CLR 63.3 61.7 95% 30.13 0.0
29 02:15 Calm 10.00 Fair CLR 62.8 62.6 99% 30.13 0.0
29 01:55 SE 3 10.00 Fair CLR 61.3 61.3 100% 30.13 0.0
29 01:35 Calm 10.00 Fair CLR 63.9 62.6 96% 30.13 0.0
29 01:15 SE 5 10.00 Fair CLR 62.4 62.4 100% 30.13 0.0
29 00:55 Calm 10.00 Fair CLR 62.8 62.8 78.3 62.6 100% 30.13 0.0
29 00:35 Calm 10.00 Fair CLR 62.6 62.6 100% 30.13 0.0
29 00:15 SE 3 10.00 Fair CLR 63.5 63.5 100% 30.13 0.0
28 23:55 E 3 10.00 Fair CLR 64 64 100% 30.14 0.0
28 23:35 Calm 10.00 Fair CLR 64.8 64.8 100% 30.13 0.0
28 23:15 Calm 10.00 Partly Cloudy SCT060 63.7 63.7 100% 30.13 0.0
28 22:55 Calm 10.00 Partly Cloudy SCT060 64.8 64.8 100% 30.14 0.0
28 22:35 Calm 10.00 Mostly Cloudy BKN060 65.3 65.3 100% 30.13 0.0
28 22:15 Calm 10.00 Mostly Cloudy BKN060 65.8 65.7 99% 30.13 0.0
28 21:55 Calm 10.00 Partly Cloudy SCT060 64.6 64.6 100% 30.13 0.0
28 21:35 Calm 10.00 Fair CLR 64.8 64.8 100% 30.13 0.0
28 21:15 Calm 10.00 Fair CLR 65.8 65.8 100% 30.12 0.0
28 20:55 Calm 10.00 Fair CLR 66.4 66.4 100% 30.12 0.0
28 20:35 Calm 10.00 Fair CLR 67.8 66.2 95% 30.11 0.0
28 20:15 Calm 10.00 Fair CLR 67.5 67.5 100% 30.11 0.0
28 19:55 Calm 10.00 Fair CLR 69.1 67.1 93% 30.11 0.0
28 19:35 Calm 10.00 Fair CLR 71.8 66.7 84% 30.1 0.0
28 19:15 N 3 10.00 Fair CLR 75.4 66.7 75% 77 30.1 0.0
28 18:55 Calm 10.00 Fair CLR 78.6 65.5 83.3 78.6 64% 81 30.1 0.0
28 18:35 Calm 10.00 Fair CLR 79.9 63.9 58% 81 30.1 0.0
28 18:15 Calm 10.00 Fair CLR 81.1 61.7 52% 82 30.1 0.0
28 17:55 Calm 10.00 Fair CLR 81.5 58.6 46% 82 30.1 0.0
28 17:35 Calm 10.00 Fair CLR 81.5 59 46% 82 30.11 0.0
28 17:15 Calm 10.00 Fair CLR 82.8 58.3 43% 83 30.1 0.0
28 16:55 Calm 10.00 Fair CLR 82.6 57.4 42% 82 30.1 0.0
28 16:35 NE 3 10.00 Partly Cloudy SCT055 82.9 58.1 43% 83 30.11 0.0
28 16:15 NE 6 10.00 Partly Cloudy SCT055 82.8 58.8 44% 83 30.12 0.0
28 15:55 NE 7 10.00 Partly Cloudy SCT055 82.8 59.9 46% 83 30.12 0.0
28 15:35 Calm 10.00 Fair CLR 82.9 59.4 45% 83 30.13 0.0
28 15:15 Calm 10.00 Fair CLR 82.6 59 45% 83 30.13 0.0
28 14:55 NE 3 10.00 Partly Cloudy SCT055 82.6 60.3 47% 83 30.13 0.0
28 14:35 N 3 10.00 Partly Cloudy SCT055 82.9 61.3 48% 84 30.14 0.0
28 14:15 Calm 10.00 Partly Cloudy SCT055 82.4 58.3 44% 82 30.14 0.0
28 13:55 Calm 10.00 Fair CLR 81.9 57.9 44% 82 30.15 0.0
28 13:35 NW 5 10.00 Fair CLR 82.2 59.5 46% 82 30.15 0.0
28 13:15 W 5 10.00 Partly Cloudy SCT049 81.1 59.9 49% 82 30.15 0.0
28 12:55 NW 5 10.00 Partly Cloudy SCT049 SCT055 82 62.4 82.2 58.3 52% 83 30.16 0.0
28 12:35 SW 3 10.00 Partly Cloudy SCT046 SCT055 81.5 62.6 53% 83 30.17 0.0
28 12:15 W 5 10.00 Fair CLR 81.1 63 54% 82 30.18 0.0
28 11:55 W 3 10.00 Partly Cloudy SCT042 SCT048 80.1 63.1 56% 81 30.18 0.0
28 11:35 W 5 10.00 Partly Cloudy SCT041 SCT050 79.2 62.4 57% 81 30.18 0.0
28 11:15 SW 3 10.00 Fair CLR 79.5 63.7 59% 81 30.18 0.0
28 10:55 Calm 10.00 Fair CLR 78.8 63.9 60% 80 30.18 0.0
28 10:35 Calm 10.00 Fair CLR 77.7 64.6 64% 80 30.18 0.0
Date Time (cdt) Wind (mph) Vis. (mi.) Weather Sky Cond. Air Dwpt Max. Min. Relative Humidity Wind Chill (°F) Heat Index (°F) altimeter (in) sea level (mb) 1 hr 3 hr 6 hr
6 hour
Temperature (ºF) Pressure Precipitation (in)